createdAt,value
2018-03-18T00:02:20.782Z,5.53
2018-03-18T00:04:49.300Z,5.50
2018-03-18T00:07:17.781Z,5.33
2018-03-18T00:09:46.288Z,6.30
2018-03-18T00:12:14.749Z,4.80
2018-03-18T00:14:43.243Z,5.53
2018-03-18T00:17:11.694Z,5.20
2018-03-18T00:19:40.198Z,5.33
2018-03-18T00:22:08.657Z,6.03
2018-03-18T00:24:37.194Z,12.30
2018-03-18T00:27:05.704Z,6.23
2018-03-18T00:29:34.201Z,6.20
2018-03-18T00:32:02.685Z,5.17
2018-03-18T00:34:31.142Z,4.97
2018-03-18T00:36:59.638Z,4.23
2018-03-18T00:39:28.130Z,4.23
2018-03-18T00:41:56.583Z,4.80
2018-03-18T00:44:25.074Z,4.70
2018-03-18T00:46:53.566Z,4.60
2018-03-18T00:49:22.061Z,4.20
2018-03-18T00:52:02.306Z,5.20
2018-03-18T00:54:30.762Z,5.10
2018-03-18T00:56:59.254Z,5.27
2018-03-18T00:59:27.760Z,4.90
2018-03-18T01:01:56.218Z,6.50
2018-03-18T01:04:24.723Z,5.93
2018-03-18T01:06:53.218Z,4.90
2018-03-18T01:09:21.733Z,5.27
2018-03-18T01:11:50.205Z,5.63
2018-03-18T01:14:18.697Z,5.33
2018-03-18T01:16:47.158Z,4.97
2018-03-18T01:19:15.656Z,5.27
2018-03-18T01:21:44.115Z,4.70
2018-03-18T01:24:12.570Z,5.20
2018-03-18T01:26:41.094Z,5.00
2018-03-18T01:29:09.558Z,5.63
2018-03-18T01:31:38.079Z,5.40
2018-03-18T01:34:06.608Z,5.40
2018-03-18T01:36:35.061Z,4.33
2018-03-18T01:39:03.585Z,4.07
2018-03-18T01:41:32.078Z,4.27
2018-03-18T01:44:00.538Z,4.20
2018-03-18T01:46:29.039Z,6.13
2018-03-18T01:48:57.502Z,4.93
2018-03-18T01:51:26.004Z,4.87
2018-03-18T01:53:54.466Z,4.67
2018-03-18T01:56:22.934Z,4.67
2018-03-18T01:58:51.430Z,5.33
2018-03-18T02:01:19.894Z,5.50
2018-03-18T02:03:48.393Z,12.03
2018-03-18T02:06:16.882Z,15.77
2018-03-18T02:08:45.382Z,21.20
2018-03-18T02:11:13.852Z,9.60
2018-03-18T02:13:42.377Z,11.83
2018-03-18T02:16:10.854Z,11.67
2018-03-18T02:18:39.326Z,10.20
2018-03-18T02:21:07.827Z,12.87
2018-03-18T02:23:36.336Z,9.57
2018-03-18T02:26:04.814Z,10.00
2018-03-18T02:28:33.310Z,6.97
2018-03-18T02:31:01.811Z,7.27
2018-03-18T02:33:30.267Z,8.97
2018-03-18T02:35:58.793Z,9.87
2018-03-18T02:38:27.265Z,12.53
2018-03-18T02:40:55.768Z,11.50
2018-03-18T02:43:24.247Z,9.57
2018-03-18T02:45:52.754Z,11.93
2018-03-18T02:48:21.220Z,11.43
2018-03-18T02:50:49.718Z,10.60
2018-03-18T02:53:18.186Z,11.80
2018-03-18T02:55:46.701Z,13.10
2018-03-18T02:58:15.483Z,14.07
2018-03-18T03:00:43.958Z,13.53
2018-03-18T03:03:12.459Z,12.53
2018-03-18T03:05:40.937Z,12.80
2018-03-18T03:08:09.472Z,14.13
2018-03-18T03:10:37.987Z,15.07
2018-03-18T03:13:06.498Z,12.40
2018-03-18T03:15:34.966Z,11.27
2018-03-18T03:18:03.499Z,9.67
2018-03-18T03:20:32.010Z,10.47
2018-03-18T03:23:00.525Z,13.13
2018-03-18T03:25:29.037Z,12.90
2018-03-18T03:27:57.498Z,12.07
2018-03-18T03:30:25.982Z,14.27
2018-03-18T03:32:54.479Z,15.37
2018-03-18T03:35:22.962Z,15.27
2018-03-18T03:37:51.504Z,15.03
2018-03-18T03:40:19.975Z,17.53
2018-03-18T03:42:48.490Z,18.53
2018-03-18T03:45:16.982Z,18.00
2018-03-18T03:47:45.497Z,20.60
2018-03-18T03:50:14.005Z,19.73
2018-03-18T03:52:42.508Z,19.60
2018-03-18T03:55:11.005Z,19.07
2018-03-18T03:57:39.514Z,18.47
2018-03-18T04:00:08.042Z,19.47
2018-03-18T04:02:36.550Z,19.33
2018-03-18T04:05:05.113Z,19.70
2018-03-18T04:07:33.573Z,19.30
2018-03-18T04:10:02.094Z,20.87
2018-03-18T04:12:30.587Z,22.97
2018-03-18T04:14:59.122Z,22.60
2018-03-18T04:17:27.603Z,20.83
2018-03-18T04:19:56.074Z,24.10
2018-03-18T04:22:24.594Z,22.30
2018-03-18T04:24:53.059Z,22.47
2018-03-18T04:27:21.569Z,22.93
2018-03-18T04:29:50.038Z,21.07
2018-03-18T04:32:18.542Z,23.53
2018-03-18T04:34:47.042Z,23.67
2018-03-18T04:37:15.541Z,25.27
2018-03-18T04:39:44.072Z,24.33
2018-03-18T04:42:12.589Z,22.60
2018-03-18T04:44:41.089Z,24.57
2018-03-18T04:47:09.593Z,23.50
2018-03-18T04:49:38.102Z,24.93
2018-03-18T04:52:06.678Z,25.43
2018-03-18T04:54:35.169Z,24.50
2018-03-18T04:57:04.430Z,24.37
2018-03-18T04:59:32.929Z,26.50
2018-03-18T05:02:01.438Z,26.03
2018-03-18T05:04:29.962Z,26.17
2018-03-18T05:06:58.457Z,24.10
2018-03-18T05:09:27.123Z,23.83
2018-03-18T05:11:55.631Z,22.43
2018-03-18T05:14:24.142Z,23.43
2018-03-18T05:16:52.650Z,25.30
2018-03-18T05:19:21.119Z,29.20
2018-03-18T05:21:49.626Z,25.60
2018-03-18T05:24:18.103Z,24.87
2018-03-18T05:26:46.621Z,24.53
2018-03-18T05:29:15.091Z,24.70
2018-03-18T05:31:43.626Z,24.93
2018-03-18T05:34:12.109Z,24.03
2018-03-18T05:36:40.630Z,25.57
2018-03-18T05:39:09.168Z,23.77
2018-03-18T05:41:37.648Z,22.90
2018-03-18T05:44:06.152Z,21.17
2018-03-18T05:46:34.689Z,18.37
2018-03-18T05:49:03.145Z,17.43
2018-03-18T05:51:31.638Z,18.20
2018-03-18T05:54:00.096Z,19.13
2018-03-18T05:56:28.605Z,18.73
2018-03-18T05:58:57.108Z,21.47
2018-03-18T06:01:25.635Z,21.30
2018-03-18T06:03:54.138Z,20.53
2018-03-18T06:06:22.641Z,21.93
2018-03-18T06:08:51.122Z,19.90
2018-03-18T06:11:19.622Z,19.30
2018-03-18T06:13:48.121Z,17.60
2018-03-18T06:16:16.596Z,18.80
2018-03-18T06:18:45.112Z,18.27
2018-03-18T06:21:13.596Z,18.40
2018-03-18T06:23:42.062Z,18.57
2018-03-18T06:26:10.566Z,18.60
2018-03-18T06:28:39.104Z,17.33
2018-03-18T06:31:07.598Z,17.90
2018-03-18T06:33:36.163Z,18.87
2018-03-18T06:36:04.702Z,17.17
2018-03-18T06:38:33.170Z,16.97
2018-03-18T06:41:01.670Z,17.57
2018-03-18T06:43:31.133Z,17.60
2018-03-18T06:45:59.638Z,17.03
2018-03-18T06:48:28.106Z,15.90
2018-03-18T06:50:56.606Z,17.30
2018-03-18T06:53:25.067Z,16.57
2018-03-18T06:55:53.584Z,18.13
2018-03-18T06:58:22.058Z,17.33
2018-03-18T07:00:50.576Z,16.53
2018-03-18T07:03:19.046Z,17.37
2018-03-18T07:05:47.518Z,17.03
2018-03-18T07:08:16.042Z,15.53
2018-03-18T07:10:44.519Z,14.80
2018-03-18T07:13:13.055Z,14.23
2018-03-18T07:15:41.566Z,13.17
2018-03-18T07:18:10.034Z,13.43
2018-03-18T07:20:38.533Z,13.27
2018-03-18T07:23:07.043Z,12.50
2018-03-18T07:25:35.528Z,10.53
2018-03-18T07:28:04.014Z,12.37
2018-03-18T07:30:32.518Z,10.57
2018-03-18T07:33:00.997Z,10.43
2018-03-18T07:35:29.498Z,10.10
2018-03-18T07:37:57.999Z,9.43
2018-03-18T07:40:26.498Z,9.17
2018-03-18T07:42:54.980Z,7.33
2018-03-18T07:45:23.486Z,6.97
2018-03-18T07:47:51.987Z,6.50
2018-03-18T07:50:20.477Z,6.57
2018-03-18T07:52:48.930Z,5.90
2018-03-18T07:55:17.438Z,5.67
2018-03-18T07:57:45.908Z,6.10
2018-03-18T08:00:14.410Z,4.93
2018-03-18T08:02:42.862Z,5.43
2018-03-18T08:05:11.350Z,5.63
2018-03-18T08:07:39.844Z,5.37
2018-03-18T08:10:08.329Z,4.57
2018-03-18T08:12:36.786Z,4.73
2018-03-18T08:15:05.238Z,4.63
2018-03-18T08:17:33.742Z,4.20
2018-03-18T08:20:02.198Z,4.57
2018-03-18T08:22:30.673Z,5.17
2018-03-18T08:24:59.188Z,3.40
2018-03-18T08:27:27.678Z,3.20
2018-03-18T08:29:56.166Z,3.90
2018-03-18T08:32:24.665Z,3.13
2018-03-18T08:34:53.166Z,3.40
2018-03-18T08:37:21.628Z,3.37
2018-03-18T08:39:50.090Z,3.57
2018-03-18T08:42:28.311Z,3.03
2018-03-18T08:44:56.793Z,2.87
2018-03-18T08:47:25.300Z,2.27
2018-03-18T08:49:53.751Z,2.13
2018-03-18T08:52:22.270Z,1.90
2018-03-18T08:54:50.760Z,2.20
2018-03-18T08:57:19.246Z,2.37
2018-03-18T08:59:47.737Z,3.70
2018-03-18T09:02:16.231Z,1.57
2018-03-18T09:04:44.693Z,1.10
2018-03-18T09:07:13.206Z,1.93
2018-03-18T09:09:41.698Z,2.50
2018-03-18T09:12:10.145Z,2.77
2018-03-18T09:14:38.634Z,2.43
2018-03-18T09:17:07.090Z,2.77
2018-03-18T09:19:35.577Z,2.63
2018-03-18T09:22:04.058Z,1.60
2018-03-18T09:24:32.546Z,1.23
2018-03-18T09:27:01.030Z,1.43
2018-03-18T09:29:29.482Z,1.60
2018-03-18T09:31:57.975Z,1.27
2018-03-18T09:34:26.426Z,1.20
2018-03-18T09:36:54.929Z,1.97
2018-03-18T09:39:23.416Z,2.90
2018-03-18T09:41:51.944Z,2.67
2018-03-18T09:44:20.443Z,2.07
2018-03-18T09:46:48.898Z,3.07
2018-03-18T09:49:17.406Z,5.93
2018-03-18T09:51:45.913Z,7.70
2018-03-18T09:54:14.372Z,10.97
2018-03-18T09:56:42.865Z,10.10
2018-03-18T09:59:11.322Z,12.03
2018-03-18T10:01:39.851Z,13.37
2018-03-18T10:04:08.318Z,12.43
2018-03-18T10:06:36.777Z,14.03
2018-03-18T10:09:05.318Z,12.83
2018-03-18T10:11:33.786Z,12.13
2018-03-18T10:14:02.283Z,12.30
2018-03-18T10:16:30.754Z,13.77
2018-03-18T10:18:59.277Z,10.17
2018-03-18T10:21:27.735Z,9.57
2018-03-18T10:23:56.230Z,10.73
2018-03-18T10:26:24.719Z,10.30
2018-03-18T10:28:53.225Z,10.23
2018-03-18T10:31:21.739Z,9.57
2018-03-18T10:33:50.194Z,9.23
2018-03-18T10:36:18.702Z,8.53
2018-03-18T10:38:47.171Z,10.70
2018-03-18T10:41:15.626Z,8.83
2018-03-18T10:43:44.125Z,9.33
2018-03-18T10:46:12.622Z,9.17
2018-03-18T10:48:41.112Z,8.60
2018-03-18T10:51:09.614Z,9.73
2018-03-18T10:53:38.091Z,10.80
2018-03-18T10:56:06.630Z,8.17
2018-03-18T10:58:35.117Z,8.00
2018-03-18T11:01:09.023Z,7.47
2018-03-18T11:03:37.545Z,7.13
2018-03-18T11:06:14.812Z,6.77
2018-03-18T11:08:43.305Z,6.67
2018-03-18T11:11:11.758Z,7.30
2018-03-18T11:13:40.254Z,7.90
2018-03-18T11:16:08.726Z,7.73
2018-03-18T11:18:37.222Z,6.90
2018-03-18T11:21:05.708Z,7.03
2018-03-18T11:23:34.226Z,9.80
2018-03-18T11:26:02.682Z,6.10
2018-03-18T11:28:31.182Z,5.80
2018-03-18T11:30:59.634Z,8.37
2018-03-18T11:33:28.102Z,8.53
2018-03-18T11:35:56.599Z,6.17
2018-03-18T11:38:25.089Z,6.47
2018-03-18T11:40:53.603Z,6.23
2018-03-18T11:43:22.095Z,5.67
2018-03-18T11:45:50.598Z,6.90
2018-03-18T11:48:19.057Z,6.77
2018-03-18T11:50:47.540Z,6.80
2018-03-18T11:53:16.068Z,6.37
2018-03-18T11:55:44.566Z,6.80
2018-03-18T11:58:13.066Z,7.53
2018-03-18T12:00:41.563Z,7.47
2018-03-18T12:03:10.116Z,8.70
2018-03-18T12:05:38.614Z,8.40
2018-03-18T12:08:07.074Z,7.47
2018-03-18T12:10:35.526Z,7.53
2018-03-18T12:13:04.036Z,7.47
2018-03-18T12:15:32.498Z,7.17
2018-03-18T12:18:01.007Z,8.23
2018-03-18T12:20:29.525Z,6.87
2018-03-18T12:22:58.006Z,6.87
2018-03-18T12:25:26.506Z,6.73
2018-03-18T12:27:54.998Z,7.80
2018-03-18T12:30:23.486Z,6.43
2018-03-18T12:32:51.950Z,7.00
2018-03-18T12:35:20.454Z,7.50
2018-03-18T12:37:48.911Z,8.17
2018-03-18T12:40:34.990Z,7.33
2018-03-18T12:46:03.186Z,7.13
2018-03-18T12:48:31.799Z,8.00
2018-03-18T12:51:00.491Z,8.20
2018-03-18T12:53:29.050Z,8.17
2018-03-18T12:55:57.513Z,7.57
2018-03-18T12:58:26.002Z,7.23
2018-03-18T13:00:54.457Z,6.90
2018-03-18T13:03:22.914Z,4.63
2018-03-18T13:05:51.426Z,4.73
2018-03-18T13:08:19.922Z,3.70
2018-03-18T13:10:48.377Z,3.17
2018-03-18T13:13:17.237Z,2.80
2018-03-18T13:15:45.731Z,2.80
2018-03-18T13:18:14.210Z,2.60
2018-03-18T13:20:42.710Z,4.37
2018-03-18T13:23:11.168Z,4.10
2018-03-18T13:25:39.656Z,2.83
2018-03-18T13:28:08.102Z,2.70
2018-03-18T13:30:36.606Z,3.07
2018-03-18T13:33:05.064Z,3.27
2018-03-18T13:35:33.514Z,2.90
2018-03-18T13:38:02.015Z,3.00
2018-03-18T13:40:30.478Z,2.87
2018-03-18T13:42:59.009Z,2.37
2018-03-18T13:45:27.542Z,2.60
2018-03-18T13:47:56.008Z,2.67
2018-03-18T13:50:24.530Z,3.10
2018-03-18T13:52:52.994Z,2.90
2018-03-18T13:55:21.496Z,2.87
2018-03-18T13:57:49.992Z,3.30
2018-03-18T14:00:18.474Z,4.30
2018-03-18T14:02:46.929Z,4.50
2018-03-18T14:05:15.413Z,4.20
2018-03-18T14:07:43.872Z,4.70
2018-03-18T14:10:12.358Z,3.90
2018-03-18T14:12:40.859Z,5.57
2018-03-18T14:15:09.354Z,5.03
2018-03-18T14:17:37.858Z,5.07
2018-03-18T14:20:06.369Z,5.07
2018-03-18T14:22:34.890Z,5.47
2018-03-18T14:25:03.378Z,5.03
2018-03-18T14:27:31.878Z,5.87
2018-03-18T14:30:00.330Z,6.63
2018-03-18T14:32:28.854Z,11.30
2018-03-18T14:34:57.373Z,10.57
2018-03-18T14:37:25.899Z,11.60
2018-03-18T14:39:54.378Z,10.87
2018-03-18T14:42:22.897Z,13.70
2018-03-18T14:44:51.383Z,12.97
2018-03-18T14:47:19.892Z,12.57
2018-03-18T14:49:48.357Z,12.20
2018-03-18T14:52:16.854Z,11.77
2018-03-18T14:54:45.314Z,11.17
2018-03-18T14:57:13.850Z,11.57
2018-03-18T14:59:42.350Z,10.50
2018-03-18T15:02:10.806Z,10.53
2018-03-18T15:04:39.314Z,9.70
2018-03-18T15:07:07.796Z,9.53
2018-03-18T15:09:36.300Z,8.90
2018-03-18T15:12:04.758Z,8.17
2018-03-18T15:14:33.246Z,7.97
2018-03-18T15:17:01.755Z,9.33
2018-03-18T15:19:30.222Z,8.97
2018-03-18T15:21:58.678Z,6.17
2018-03-18T15:24:27.194Z,5.10
2018-03-18T15:26:55.651Z,5.23
2018-03-18T15:29:24.118Z,4.87
2018-03-18T15:31:52.622Z,4.27
2018-03-18T15:34:21.118Z,4.63
2018-03-18T15:36:49.632Z,4.53
2018-03-18T15:39:18.092Z,4.03
2018-03-18T15:41:46.589Z,4.27
2018-03-18T15:44:15.074Z,4.00
2018-03-18T15:46:43.529Z,4.40
2018-03-18T15:49:12.030Z,4.30
2018-03-18T15:51:40.481Z,4.13
2018-03-18T15:54:09.102Z,4.33
2018-03-18T15:56:37.570Z,4.50
2018-03-18T15:59:06.064Z,5.03
2018-03-18T16:01:34.526Z,4.77
2018-03-18T16:04:03.013Z,4.53
2018-03-18T16:06:31.467Z,4.90
2018-03-18T16:08:59.958Z,6.07
2018-03-18T16:11:28.410Z,5.70
2018-03-18T16:13:56.913Z,5.50
2018-03-18T16:16:25.385Z,5.07
2018-03-18T16:18:53.878Z,5.90
2018-03-18T16:21:22.338Z,4.97
2018-03-18T16:23:50.901Z,4.53
2018-03-18T16:26:19.354Z,4.30
2018-03-18T16:28:47.802Z,4.07
2018-03-18T16:31:17.201Z,3.73
2018-03-18T16:33:45.690Z,3.90
2018-03-18T16:36:14.148Z,4.20
2018-03-18T16:38:42.653Z,3.97
2018-03-18T16:41:11.105Z,3.90
2018-03-18T16:43:39.604Z,3.80
2018-03-18T16:46:08.062Z,3.90
2018-03-18T16:48:36.529Z,4.40
2018-03-18T16:51:05.021Z,4.43
2018-03-18T16:53:33.509Z,4.57
2018-03-18T16:56:01.962Z,5.23
2018-03-18T16:58:30.450Z,5.30
2018-03-18T17:00:58.898Z,5.80
2018-03-18T17:03:27.428Z,6.83
2018-03-18T17:05:55.891Z,6.77
2018-03-18T17:08:24.386Z,6.30
2018-03-18T17:10:52.890Z,6.87
2018-03-18T17:13:21.346Z,7.90
2018-03-18T17:15:49.805Z,8.00
2018-03-18T17:18:18.296Z,8.90
2018-03-18T17:20:46.755Z,7.73
2018-03-18T17:23:15.306Z,9.10
2018-03-18T17:25:43.776Z,7.67
2018-03-18T17:28:12.294Z,7.90
2018-03-18T17:30:40.750Z,7.77
2018-03-18T17:33:09.201Z,7.40
2018-03-18T17:35:37.694Z,7.60
2018-03-18T17:38:06.206Z,7.70
2018-03-18T17:40:34.696Z,9.37
2018-03-18T17:43:03.155Z,9.07
2018-03-18T17:48:42.218Z,8.70
2018-03-18T17:51:22.568Z,9.23
2018-03-18T17:54:03.031Z,10.80
2018-03-18T17:56:37.363Z,34.57
2018-03-18T17:59:05.928Z,28.73
2018-03-18T18:01:34.465Z,17.17
2018-03-18T18:04:02.925Z,18.07
2018-03-18T18:06:31.486Z,16.70
2018-03-18T18:09:00.063Z,16.33
2018-03-18T18:11:28.649Z,16.33
2018-03-18T18:13:57.232Z,18.50
2018-03-18T18:16:25.702Z,16.13
2018-03-18T18:18:54.302Z,22.43
2018-03-18T18:21:22.782Z,23.87
2018-03-18T18:23:51.286Z,22.80
2018-03-18T18:26:19.786Z,46.53
2018-03-18T18:28:48.281Z,31.40
2018-03-18T18:31:16.779Z,28.07
2018-03-18T18:33:45.242Z,19.27
2018-03-18T18:36:13.776Z,12.20
2018-03-18T18:38:42.250Z,10.80
2018-03-18T18:41:10.773Z,10.77
2018-03-18T18:43:39.281Z,11.77
2018-03-18T18:46:07.751Z,10.97
2018-03-18T18:48:36.258Z,12.03
2018-03-18T18:51:04.754Z,11.30
2018-03-18T18:53:33.297Z,12.90
2018-03-18T18:56:01.771Z,74.27
2018-03-18T18:58:30.266Z,35.17
2018-03-18T19:00:58.727Z,17.30
2018-03-18T19:03:27.240Z,20.43
2018-03-18T19:05:55.714Z,15.70
2018-03-18T19:08:24.210Z,28.30
2018-03-18T19:10:52.669Z,45.00
2018-03-18T19:13:21.174Z,55.80
2018-03-18T19:15:49.638Z,16.47
2018-03-18T19:18:18.131Z,12.87
2018-03-18T19:20:46.630Z,12.57
2018-03-18T19:23:15.128Z,26.87
2018-03-18T19:25:43.609Z,27.03
2018-03-18T19:28:12.151Z,26.73
2018-03-18T19:30:40.618Z,31.13
2018-03-18T19:33:09.113Z,33.10
2018-03-18T19:35:37.581Z,33.80
2018-03-18T19:38:06.086Z,14.17
2018-03-18T19:40:34.545Z,12.67
2018-03-18T19:43:03.056Z,11.53
2018-03-18T19:45:31.529Z,11.37
2018-03-18T19:48:00.037Z,13.60
2018-03-18T19:50:28.501Z,11.67
2018-03-18T19:52:57.014Z,11.73
2018-03-18T19:55:25.481Z,10.60
2018-03-18T19:57:53.992Z,18.20
2018-03-18T20:00:23.390Z,18.17
2018-03-18T20:02:51.890Z,13.13
2018-03-18T20:05:20.351Z,11.97
2018-03-18T20:07:48.862Z,14.60
2018-03-18T20:10:17.380Z,13.70
2018-03-18T20:12:45.850Z,17.00
2018-03-18T20:15:14.361Z,20.83
2018-03-18T20:17:42.862Z,23.17
2018-03-18T20:20:11.358Z,22.17
2018-03-18T20:22:39.862Z,24.10
2018-03-18T20:25:08.366Z,23.07
2018-03-18T20:27:36.847Z,24.77
2018-03-18T20:30:05.390Z,13.27
2018-03-18T20:32:33.870Z,8.07
2018-03-18T20:35:02.364Z,5.87
2018-03-18T20:37:30.866Z,4.50
2018-03-18T20:39:59.866Z,3.60
2018-03-18T20:42:28.330Z,3.43
2018-03-18T20:44:56.826Z,2.80
2018-03-18T20:47:25.278Z,2.50
2018-03-18T20:49:53.782Z,2.47
2018-03-18T20:52:22.262Z,2.67
2018-03-18T20:54:50.709Z,2.43
2018-03-18T20:57:19.193Z,2.03
2018-03-18T20:59:47.666Z,2.43
2018-03-18T21:02:16.268Z,2.50
2018-03-18T21:04:44.716Z,2.63
2018-03-18T21:07:13.171Z,3.07
2018-03-18T21:09:41.650Z,2.97
2018-03-18T21:12:10.094Z,3.30
2018-03-18T21:14:38.608Z,3.63
2018-03-18T21:17:07.054Z,4.30
2018-03-18T21:19:35.533Z,4.80
2018-03-18T21:22:03.982Z,5.40
2018-03-18T21:24:32.466Z,3.70
2018-03-18T21:27:00.932Z,3.83
2018-03-18T21:29:29.422Z,4.00
2018-03-18T21:31:57.906Z,3.83
2018-03-18T21:34:38.040Z,3.73
2018-03-18T21:37:06.566Z,3.70
2018-03-18T21:39:35.061Z,3.37
2018-03-18T21:42:03.550Z,3.50
2018-03-18T21:44:32.046Z,4.27
2018-03-18T21:47:00.537Z,4.17
2018-03-18T21:49:28.986Z,4.37
2018-03-18T21:51:57.456Z,5.50
2018-03-18T21:54:25.946Z,6.00
2018-03-18T21:56:54.398Z,6.20
2018-03-18T21:59:22.884Z,5.60
2018-03-18T22:01:51.338Z,5.67
2018-03-18T22:04:19.844Z,7.37
2018-03-18T22:06:48.341Z,6.23
2018-03-18T22:09:16.840Z,8.37
2018-03-18T22:11:45.339Z,8.63
2018-03-18T22:14:13.830Z,8.47
2018-03-18T22:16:42.319Z,6.87
2018-03-18T22:19:10.824Z,7.00
2018-03-18T22:21:39.314Z,7.77
2018-03-18T22:24:07.778Z,6.27
2018-03-18T22:26:36.229Z,6.00
2018-03-18T22:29:04.767Z,6.00
2018-03-18T22:31:33.268Z,6.63
2018-03-18T22:34:01.766Z,5.90
2018-03-18T22:36:30.220Z,5.40
2018-03-18T22:38:58.707Z,5.37
2018-03-18T22:41:27.223Z,4.20
2018-03-18T22:43:55.674Z,3.37
2018-03-18T22:46:24.122Z,2.90
2018-03-18T22:48:52.622Z,2.83
2018-03-18T22:51:21.120Z,3.00
2018-03-18T22:53:49.614Z,3.00
2018-03-18T22:56:18.072Z,3.20
2018-03-18T22:58:46.569Z,3.40
2018-03-18T23:01:15.058Z,3.90
2018-03-18T23:03:43.510Z,3.53
2018-03-18T23:06:12.026Z,3.50
2018-03-18T23:08:40.482Z,3.40
2018-03-18T23:11:08.954Z,3.67
2018-03-18T23:13:37.464Z,3.73
2018-03-18T23:16:05.926Z,4.10
2018-03-18T23:18:34.385Z,5.60
2018-03-18T23:21:02.870Z,5.23
2018-03-18T23:23:31.338Z,5.57
2018-03-18T23:25:59.846Z,6.00
2018-03-18T23:28:28.290Z,6.07
2018-03-18T23:30:56.740Z,6.30
2018-03-18T23:33:25.226Z,6.53
2018-03-18T23:35:53.691Z,6.00
2018-03-18T23:38:22.178Z,4.93
2018-03-18T23:40:50.654Z,5.50
2018-03-18T23:43:19.162Z,5.77
2018-03-18T23:45:47.652Z,5.90
2018-03-18T23:48:16.707Z,6.50
2018-03-18T23:50:48.950Z,6.30
2018-03-18T23:53:17.437Z,6.70
2018-03-18T23:55:45.918Z,7.03
2018-03-18T23:58:14.383Z,6.03
